Time;durP1;ratioP1;P1;durP2;ratioP2;P2;SDS_P1;SDS_P2;PMS_P1;PMS_P2;Temp;Humidity;BMP_temperature;BMP_pressure;BME280_temperature;BME280_humidity;BME280_pressure;Samples;Min_cycle;Max_cycle;Signal;HPM_P1;HPM_P2
2024/03/16 00:01:45;;;;;;;3.40;3.25;;;;;;;-146.26;100.00;59860.63;5077943;28;20150;-75
2024/03/16 00:04:48;;;;;;;7.75;7.20;;;;;;;-146.26;100.00;59860.63;5082988;28;20052;-76
2024/03/16 00:07:39;;;;;;;2.95;2.75;;;;;;;-146.26;100.00;59860.63;5020492;28;20140;-73
2024/03/16 00:10:30;;;;;;;3.33;3.13;;;;;;;-146.26;100.00;59860.63;5008699;28;20127;-74
2024/03/16 00:13:15;;;;;;;2.85;2.65;;;;;;;-146.26;100.00;59860.63;5022735;28;20049;-75
2024/03/16 00:16:02;;;;;;;3.58;3.25;;;;;;;-146.26;100.00;59860.63;5028975;28;20080;-75
2024/03/16 00:18:54;;;;;;;10.60;8.15;;;;;;;-146.26;100.00;59860.63;5011356;28;20131;-75
2024/03/16 00:21:46;;;;;;;6.50;6.10;;;;;;;-146.26;100.00;59860.63;5033668;28;20061;-76
2024/03/16 00:24:33;;;;;;;;;;;;;;;-146.26;100.00;59860.63;5014674;28;20148;-75
2024/03/16 00:27:29;;;;;;;4.18;3.92;;;;;;;-146.26;100.00;59860.63;4996765;28;19940;-76
2024/03/16 00:30:23;;;;;;;1.25;1.17;;;;;;;-146.26;100.00;59860.63;5018844;28;20051;-74
2024/03/16 00:33:09;;;;;;;20.63;18.95;;;;;;;-146.26;100.00;59860.63;5049199;28;20499;-75
2024/03/16 00:35:58;;;;;;;0.63;0.60;;;;;;;-146.26;100.00;59860.63;5081873;28;20048;-76
2024/03/16 00:38:29;;;;;;;2.50;2.10;;;;;;;-146.26;100.00;59860.63;5066060;28;20763;-76
2024/03/16 00:41:31;;;;;;;1.65;1.15;;;;;;;-146.26;100.00;59860.63;5088287;28;20028;-73
2024/03/16 00:44:05;;;;;;;6.55;3.15;;;;;;;-146.26;100.00;59860.63;5075929;28;20040;-74
2024/03/16 00:47:09;;;;;;;;;;;;;;;-146.26;100.00;59860.63;5077164;28;20625;-74
2024/03/16 00:49:44;;;;;;;;;;;;;;;-146.26;100.00;59860.63;5084142;28;20038;-72
2024/03/16 00:52:31;;;;;;;10.82;5.35;;;;;;;-146.26;100.00;59860.63;5056143;28;19924;-74
2024/03/16 00:55:15;;;;;;;1.23;1.20;;;;;;;-146.26;100.00;59860.63;5067223;28;20105;-74
2024/03/16 00:58:08;;;;;;;4.95;4.57;;;;;;;-146.26;100.00;59860.63;5076001;28;20055;-76
2024/03/16 01:01:09;;;;;;;10.47;9.60;;;;;;;-146.26;100.00;59860.63;5075798;28;20511;-74
2024/03/16 01:04:09;;;;;;;5.68;5.25;;;;;;;-146.26;100.00;59860.63;5048743;28;21053;-75
2024/03/16 01:06:56;;;;;;;2.15;2.05;;;;;;;-146.26;100.00;59860.63;5053120;28;20442;-74
2024/03/16 01:09:57;;;;;;;3.35;3.20;;;;;;;-146.26;100.00;59860.63;5070691;28;20686;-74
2024/03/16 01:12:51;;;;;;;1.55;1.45;;;;;;;-146.26;100.00;59860.63;5056245;28;20059;-76
2024/03/16 01:15:32;;;;;;;13.30;12.50;;;;;;;-146.26;100.00;59860.63;5026520;28;20785;-75
2024/03/16 01:18:29;;;;;;;1.25;0.88;;;;;;;-146.26;100.00;59860.63;5055441;28;20132;-76
2024/03/16 01:21:21;;;;;;;3.30;3.10;;;;;;;-146.26;100.00;59860.63;5045787;28;20052;-74
2024/03/16 01:24:03;;;;;;;3.70;3.50;;;;;;;-146.26;100.00;59860.63;5049248;28;20466;-74
2024/03/16 01:27:01;;;;;;;2.67;2.55;;;;;;;-146.26;100.00;59860.63;5050671;28;20083;-75
2024/03/16 01:29:54;;;;;;;2.10;1.98;;;;;;;-146.26;100.00;59860.63;5051968;28;20607;-74
2024/03/16 01:32:42;;;;;;;1.45;1.40;;;;;;;-146.26;100.00;59860.63;5053613;28;20029;-74
2024/03/16 01:35:11;;;;;;;3.03;2.83;;;;;;;-146.26;100.00;59860.63;5053589;28;20136;-74
2024/03/16 01:38:04;;;;;;;3.55;3.35;;;;;;;-146.26;100.00;59860.63;5043976;28;20122;-75
2024/03/16 01:40:50;;;;;;;2.40;2.30;;;;;;;-146.26;100.00;59860.63;5054808;28;20587;-75
2024/03/16 01:43:52;;;;;;;0.80;0.80;;;;;;;-146.26;100.00;59860.63;5028785;28;20056;-74
2024/03/16 01:46:42;;;;;;;4.50;4.20;;;;;;;-146.26;100.00;59860.63;5050258;28;20432;-75
2024/03/16 01:49:32;;;;;;;4.53;4.28;;;;;;;-146.26;100.00;59860.63;5065958;28;20084;-75
2024/03/16 01:52:14;;;;;;;4.18;3.97;;;;;;;-146.26;100.00;59860.63;5073836;28;20101;-75
2024/03/16 01:54:39;;;;;;;4.53;4.22;;;;;;;-146.26;100.00;59860.63;5072290;28;20167;-75
2024/03/16 01:57:31;;;;;;;1.05;1.05;;;;;;;-146.26;100.00;59860.63;5057345;28;20052;-74
2024/03/16 02:00:28;;;;;;;1.08;0.88;;;;;;;-146.26;100.00;59860.63;5053484;28;20055;-74
2024/03/16 02:03:23;;;;;;;1.75;1.63;;;;;;;-146.26;100.00;59860.63;5046204;28;20049;-74
2024/03/16 02:05:50;;;;;;;1.58;1.48;;;;;;;-146.26;100.00;59860.63;5050059;28;20060;-75
2024/03/16 02:09:01;;;;;;;0.40;0.40;;;;;;;-146.26;100.00;59860.63;5017345;28;20120;-75
2024/03/16 02:11:32;;;;;;;5.85;5.47;;;;;;;-146.26;100.00;59860.63;5050070;28;20146;-76
2024/03/16 02:14:24;;;;;;;40.28;20.83;;;;;;;-146.26;100.00;59860.63;5051524;28;20045;-76
2024/03/16 02:16:58;;;;;;;2.92;2.72;;;;;;;-146.26;100.00;59860.63;5058617;28;20459;-74
2024/03/16 02:20:14;;;;;;;10.88;10.25;;;;;;;-146.26;100.00;59860.63;5058967;28;20049;-74
2024/03/16 02:23:02;;;;;;;1.60;1.50;;;;;;;-146.26;100.00;59860.63;5054512;28;20048;-74
2024/03/16 02:25:54;;;;;;;0.75;0.75;;;;;;;-146.26;100.00;59860.63;5050760;28;20044;-75
2024/03/16 02:28:41;;;;;;;11.57;10.52;;;;;;;-146.26;100.00;59860.63;5048185;28;20060;-75
2024/03/16 02:31:31;;;;;;;5.95;5.70;;;;;;;-146.26;100.00;59860.63;5057183;28;20668;-76
2024/03/16 02:34:41;;;;;;;2.85;2.75;;;;;;;-146.26;100.00;59860.63;5057203;28;20062;-74
2024/03/16 02:37:25;;;;;;;0.68;0.68;;;;;;;-146.26;100.00;59860.63;5033807;28;20411;-74
2024/03/16 02:40:14;;;;;;;;;;;;;;;-146.26;100.00;59860.63;5043832;28;20052;-73
2024/03/16 02:43:00;;;;;;;7.30;6.90;;;;;;;-146.26;100.00;59860.63;5033961;28;19931;-74
2024/03/16 02:46:27;;;;;;;11.82;10.95;;;;;;;-146.26;100.00;59860.63;5060327;28;20024;-76
2024/03/16 02:49:15;;;;;;;1.05;1.05;;;;;;;-146.26;100.00;59860.63;5031154;28;20095;-77
2024/03/16 02:52:24;;;;;;;3.50;3.30;;;;;;;-146.26;100.00;59860.63;5054008;28;20040;-77
2024/03/16 02:55:05;;;;;;;0.40;0.40;;;;;;;-146.26;100.00;59860.63;5045480;28;20504;-76
2024/03/16 02:58:04;;;;;;;3.72;3.42;;;;;;;-146.26;100.00;59860.63;5076722;28;20047;-74
2024/03/16 03:00:44;;;;;;;26.25;21.13;;;;;;;-146.26;100.00;59860.63;5042971;28;20086;-74
2024/03/16 03:03:43;;;;;;;3.08;2.92;;;;;;;-146.26;100.00;59860.63;5056911;28;20079;-74
2024/03/16 03:06:40;;;;;;;3.13;2.92;;;;;;;-146.26;100.00;59860.63;5070702;28;20064;-74
2024/03/16 03:09:26;;;;;;;0.73;0.73;;;;;;;-146.26;100.00;59860.63;5071002;28;20190;-74
2024/03/16 03:12:07;;;;;;;7.93;7.38;;;;;;;-146.26;100.00;59860.63;5058825;28;20078;-74
2024/03/16 03:15:09;;;;;;;6.43;5.95;;;;;;;-146.26;100.00;59860.63;5074381;28;20060;-75
2024/03/16 03:17:59;;;;;;;3.83;3.63;;;;;;;-146.26;100.00;59860.63;5072152;28;20023;-74
2024/03/16 03:20:30;;;;;;;2.67;2.55;;;;;;;-146.26;100.00;59860.63;5070302;28;20130;-74
2024/03/16 03:23:20;;;;;;;3.45;3.25;;;;;;;-146.26;100.00;59860.63;5088369;28;20531;-75
2024/03/16 03:25:57;;;;;;;0.80;0.80;;;;;;;-146.26;100.00;59860.63;5084367;28;20037;-77
2024/03/16 03:28:50;;;;;;;18.33;16.52;;;;;;;-146.26;100.00;59860.63;5066181;28;20232;-75
2024/03/16 03:31:50;;;;;;;3.65;2.33;;;;;;;-146.26;100.00;59860.63;5068953;28;20044;-74
2024/03/16 03:34:36;;;;;;;1.95;1.85;;;;;;;-146.26;100.00;59860.63;5075520;28;20052;-76
2024/03/16 03:37:36;;;;;;;2.88;2.78;;;;;;;-146.26;100.00;59860.63;5059592;28;20101;-76
2024/03/16 03:40:27;;;;;;;1.33;1.23;;;;;;;-146.26;100.00;59860.63;5083571;28;20063;-74
2024/03/16 03:43:21;;;;;;;0.50;0.50;;;;;;;-146.26;100.00;59860.63;5048921;28;20125;-74
2024/03/16 03:46:51;;;;;;;4.00;3.80;;;;;;;-146.26;100.00;59860.63;5068804;28;20187;-75
2024/03/16 03:49:32;;;;;;;0.40;0.40;;;;;;;-146.26;100.00;59860.63;5065337;28;20064;-74
2024/03/16 03:52:17;;;;;;;1.42;1.33;;;;;;;-146.26;100.00;59860.63;5071538;28;20039;-76
2024/03/16 03:55:02;;;;;;;3.75;3.33;;;;;;;-146.26;100.00;59860.63;5009095;28;20055;-74
2024/03/16 03:58:02;;;;;;;6.97;6.57;;;;;;;-146.26;100.00;59860.63;5069244;28;20040;-75
2024/03/16 04:01:08;;;;;;;1.48;1.38;;;;;;;-146.26;100.00;59860.63;5065719;28;20052;-75
2024/03/16 04:04:00;;;;;;;2.15;2.05;;;;;;;-146.26;100.00;59860.63;5073370;28;21309;-76
2024/03/16 04:06:44;;;;;;;0.95;0.93;;;;;;;-146.26;100.00;59860.63;5055894;28;20052;-75
2024/03/16 04:09:35;;;;;;;2.05;1.95;;;;;;;-146.26;100.00;59860.63;5072722;28;20048;-75
2024/03/16 04:12:28;;;;;;;2.50;2.40;;;;;;;-146.26;100.00;59860.63;5064765;28;20102;-74
2024/03/16 04:15:10;;;;;;;0.50;0.50;;;;;;;-146.26;100.00;59860.63;5083522;28;20045;-75
2024/03/16 04:18:08;;;;;;;1.23;1.20;;;;;;;-146.26;100.00;59860.63;5070305;28;20052;-74
2024/03/16 04:20:41;;;;;;;5.07;4.68;;;;;;;-146.26;100.00;59860.63;5071351;28;20055;-74
2024/03/16 04:23:13;;;;;;;0.63;0.63;;;;;;;-146.26;100.00;59860.63;5047883;28;20447;-74
2024/03/16 04:25:49;;;;;;;4.22;3.90;;;;;;;-146.26;100.00;59860.63;5074603;28;20539;-75
2024/03/16 04:28:51;;;;;;;2.47;2.05;;;;;;;-146.26;100.00;59860.63;5061910;28;20047;-74
2024/03/16 04:31:38;;;;;;;6.97;2.25;;;;;;;-146.26;100.00;59860.63;5052213;28;20072;-76
2024/03/16 04:34:28;;;;;;;4.15;3.92;;;;;;;-146.26;100.00;59860.63;5054424;28;20135;-75
2024/03/16 04:37:21;;;;;;;0.28;0.28;;;;;;;-146.26;100.00;59860.63;5063868;28;20128;-74
2024/03/16 04:40:08;;;;;;;4.85;4.53;;;;;;;-146.26;100.00;59860.63;5058341;28;20434;-73
2024/03/16 04:42:52;;;;;;;2.50;2.38;;;;;;;-146.26;100.00;59860.63;5076090;28;20472;-76
2024/03/16 04:45:41;;;;;;;2.15;2.05;;;;;;;-146.26;100.00;59860.63;5050319;28;20043;-76
2024/03/16 04:48:25;;;;;;;3.03;2.78;;;;;;;-146.26;100.00;59860.63;5058940;28;20418;-74
2024/03/16 04:51:14;;;;;;;5.20;4.82;;;;;;;-146.26;100.00;59860.63;5079745;28;20067;-76
2024/03/16 04:53:52;;;;;;;2.35;2.15;;;;;;;-146.26;100.00;59860.63;5074687;28;20519;-75
2024/03/16 04:56:41;;;;;;;3.08;2.83;;;;;;;-146.26;100.00;59860.63;5065796;28;20056;-75
2024/03/16 04:59:07;;;;;;;11.15;10.27;;;;;;;-146.26;100.00;59860.63;5067831;28;20513;-74
2024/03/16 05:02:21;;;;;;;2.83;2.72;;;;;;;-146.26;100.00;59860.63;5057129;28;20058;-75
2024/03/16 05:05:10;;;;;;;2.05;1.95;;;;;;;-146.26;100.00;59860.63;5058871;28;20048;-77
2024/03/16 05:07:57;;;;;;;0.75;0.75;;;;;;;-146.26;100.00;59860.63;5055192;28;20079;-76
2024/03/16 05:10:54;;;;;;;1.75;1.65;;;;;;;-146.26;100.00;59860.63;5055395;28;20214;-75
2024/03/16 05:13:45;;;;;;;1.90;1.80;;;;;;;-146.26;100.00;59860.63;4995322;28;20067;-76
2024/03/16 05:16:44;;;;;;;1.05;1.05;;;;;;;-146.26;100.00;59860.63;5060320;28;20462;-76
2024/03/16 05:19:27;;;;;;;1.27;1.27;;;;;;;-146.26;100.00;59860.63;5064528;28;20056;-75
2024/03/16 05:22:20;;;;;;;2.15;2.03;;;;;;;-146.26;100.00;59860.63;5042017;28;20522;-75
2024/03/16 05:25:12;;;;;;;0.93;0.93;;;;;;;-146.26;100.00;59860.63;5057353;28;20057;-76
2024/03/16 05:28:00;;;;;;;0.68;0.68;;;;;;;-146.26;100.00;59860.63;5043073;28;20056;-77
2024/03/16 05:30:51;;;;;;;7.78;7.22;;;;;;;-146.26;100.00;59860.63;5058112;28;20056;-75
2024/03/16 05:33:21;;;;;;;3.92;3.65;;;;;;;-146.26;100.00;59860.63;5067945;28;20519;-74
2024/03/16 05:36:09;;;;;;;1.85;1.75;;;;;;;-146.26;100.00;59860.63;5074445;28;20063;-76
2024/03/16 05:39:20;;;;;;;3.05;2.85;;;;;;;-146.26;100.00;59860.63;5066744;28;20048;-74
2024/03/16 05:42:23;;;;;;;1.42;1.27;;;;;;;-146.26;100.00;59860.63;5070233;28;20075;-74
2024/03/16 05:45:24;;;;;;;4.15;3.80;;;;;;;-146.26;100.00;59860.63;4984399;28;20566;-74
2024/03/16 05:48:15;;;;;;;4.18;3.95;;;;;;;-146.26;100.00;59860.63;5006740;28;20058;-75
2024/03/16 05:51:05;;;;;;;26.20;21.95;;;;;;;-146.26;100.00;59860.63;5018911;28;20083;-75
2024/03/16 05:53:33;;;;;;;2.38;2.28;;;;;;;-146.26;100.00;59860.63;5022264;28;20056;-74
2024/03/16 05:56:07;;;;;;;6.72;6.18;;;;;;;-146.26;100.00;59860.63;5079231;28;20039;-74
2024/03/16 05:59:04;;;;;;;2.25;2.05;;;;;;;-146.26;100.00;59860.63;5054395;28;20059;-75
2024/03/16 06:01:55;;;;;;;0.95;0.95;;;;;;;-146.26;100.00;59860.63;5074629;28;20097;-75
2024/03/16 06:04:47;;;;;;;1.33;1.23;;;;;;;-146.26;100.00;59860.63;5074299;28;20117;-75
2024/03/16 06:07:35;;;;;;;0.95;0.95;;;;;;;-146.26;100.00;59860.63;5078907;28;20147;-76
2024/03/16 06:10:40;;;;;;;1.50;1.40;;;;;;;-146.26;100.00;59860.63;5086300;28;20048;-74
2024/03/16 06:13:28;;;;;;;3.13;2.92;;;;;;;-146.26;100.00;59860.63;5082155;28;20048;-75
2024/03/16 06:16:09;;;;;;;2.20;2.05;;;;;;;-146.26;100.00;59860.63;5078499;28;20095;-75
2024/03/16 06:19:04;;;;;;;0.70;0.70;;;;;;;-146.26;100.00;59860.63;5078450;28;20051;-74
2024/03/16 06:22:10;;;;;;;3.78;3.50;;;;;;;-146.26;100.00;59860.63;5078256;28;20048;-75
2024/03/16 06:25:24;;;;;;;3.13;2.92;;;;;;;-146.26;100.00;59860.63;5076353;28;20044;-73
2024/03/16 06:28:33;;;;;;;4.15;3.65;;;;;;;-146.26;100.00;59860.63;5079657;28;20069;-76
2024/03/16 06:31:31;;;;;;;3.88;3.58;;;;;;;-146.26;100.00;59860.63;5071063;28;20151;-75
2024/03/16 06:34:19;;;;;;;13.15;11.80;;;;;;;-146.26;100.00;59860.63;5098463;28;20056;-74
2024/03/16 06:37:03;;;;;;;2.90;2.80;;;;;;;-146.26;100.00;59860.63;5079400;28;20048;-75
2024/03/16 06:39:41;;;;;;;2.00;1.90;;;;;;;-146.26;100.00;59860.63;5086853;28;20058;-76
2024/03/16 06:42:11;;;;;;;2.72;2.60;;;;;;;-146.26;100.00;59860.63;5066189;28;20067;-74
2024/03/16 06:45:19;;;;;;;6.93;6.28;;;;;;;-146.26;100.00;59860.63;5074570;28;20047;-72
2024/03/16 06:48:28;;;;;;;0.80;0.73;;;;;;;-146.26;100.00;59860.63;5036773;28;20079;-74
2024/03/16 06:51:02;;;;;;;4.50;1.77;;;;;;;-146.26;100.00;59860.63;5080131;28;20037;-76
2024/03/16 06:54:16;;;;;;;13.55;10.23;;;;;;;-146.26;100.00;59860.63;5067003;28;20048;-76
2024/03/16 06:56:48;;;;;;;5.22;4.72;;;;;;;-146.26;100.00;59860.63;5064810;28;20083;-74
2024/03/16 06:59:43;;;;;;;2.75;2.47;;;;;;;-146.26;100.00;59860.63;5073187;28;20036;-74
2024/03/16 07:02:10;;;;;;;1.00;0.98;;;;;;;-146.26;100.00;59860.63;5051252;28;20056;-77
2024/03/16 07:04:36;;;;;;;1.08;1.08;;;;;;;-146.26;100.00;59860.63;5056470;28;20040;-75
2024/03/16 07:07:02;;;;;;;0.50;0.50;;;;;;;-146.26;100.00;59860.63;5088399;28;20046;-76
2024/03/16 07:09:28;;;;;;;12.73;8.43;;;;;;;-146.26;100.00;59860.63;5076339;28;20048;-75
2024/03/16 07:11:53;;;;;;;2.67;2.55;;;;;;;-146.26;100.00;59860.63;5081648;28;20038;-77
2024/03/16 07:14:19;;;;;;;4.72;4.38;;;;;;;-146.26;100.00;59860.63;5063928;28;20052;-77
2024/03/16 07:16:50;;;;;;;9.98;9.52;;;;;;;-146.26;100.00;59860.63;5077253;28;20032;-77
2024/03/16 07:19:18;;;;;;;8.60;7.97;;;;;;;-146.26;100.00;59860.63;5096534;28;20173;-77
2024/03/16 07:21:44;;;;;;;8.90;7.22;;;;;;;-146.26;100.00;59860.63;5054754;28;20131;-75
2024/03/16 07:24:09;;;;;;;16.75;15.48;;;;;;;-146.26;100.00;59860.63;5054744;28;20048;-78
2024/03/16 07:26:36;;;;;;;8.77;5.55;;;;;;;-146.26;100.00;59860.63;5071063;28;20201;-79
2024/03/16 07:29:01;;;;;;;0.40;0.40;;;;;;;-146.26;100.00;59860.63;5077104;28;20372;-81
2024/03/16 07:31:27;;;;;;;7.53;6.72;;;;;;;-146.26;100.00;59860.63;5082085;28;20085;-81
2024/03/16 07:33:53;;;;;;;1.42;1.33;;;;;;;-146.26;100.00;59860.63;5064308;28;20079;-80
2024/03/16 07:36:20;;;;;;;1.08;1.08;;;;;;;-146.26;100.00;59860.63;5073395;28;20641;-80
2024/03/16 07:38:45;;;;;;;0.28;0.28;;;;;;;-146.26;100.00;59860.63;5072788;28;20055;-78
2024/03/16 07:41:11;;;;;;;12.50;7.75;;;;;;;-146.26;100.00;59860.63;5069214;28;20044;-83
2024/03/16 07:43:37;;;;;;;1.40;1.30;;;;;;;-146.26;100.00;59860.63;5061536;28;20040;-80
2024/03/16 07:46:04;;;;;;;0.70;0.70;;;;;;;-146.26;100.00;59860.63;5075239;28;20043;-79
2024/03/16 07:48:29;;;;;;;4.43;4.00;;;;;;;-146.26;100.00;59860.63;5078345;28;20082;-76
2024/03/16 07:51:04;;;;;;;0.85;0.85;;;;;;;-146.26;100.00;59860.63;5076725;28;20050;-76
2024/03/16 07:53:31;;;;;;;28.60;17.50;;;;;;;-146.26;100.00;59860.63;5075031;28;20135;-81
2024/03/16 07:55:58;;;;;;;10.75;6.05;;;;;;;-146.26;100.00;59860.63;5078707;28;20036;-78
2024/03/16 07:58:26;;;;;;;8.73;7.80;;;;;;;-146.26;100.00;59860.63;5080244;28;20051;-80
2024/03/16 08:00:52;;;;;;;0.88;0.85;;;;;;;-146.26;100.00;59860.63;5075121;28;20087;-79
2024/03/16 08:03:18;;;;;;;4.22;3.85;;;;;;;-146.26;100.00;59860.63;5078300;28;20436;-76
2024/03/16 08:05:47;;;;;;;5.95;5.55;;;;;;;-146.26;100.00;59860.63;5075589;28;20043;-80
2024/03/16 08:08:12;;;;;;;0.90;0.90;;;;;;;-146.26;100.00;59860.63;5073974;28;20064;-76
2024/03/16 08:10:38;;;;;;;5.28;4.78;;;;;;;-146.26;100.00;59860.63;5064577;28;20032;-79
2024/03/16 08:13:04;;;;;;;10.20;6.57;;;;;;;-146.26;100.00;59860.63;5080390;28;20078;-78
2024/03/16 08:15:30;;;;;;;1.48;1.38;;;;;;;-146.26;100.00;59860.63;5062599;28;20048;-78
2024/03/16 08:17:57;;;;;;;10.95;1.75;;;;;;;-146.26;100.00;59860.63;5059169;28;20044;-83
2024/03/16 08:20:24;;;;;;;5.07;4.60;;;;;;;-146.26;100.00;59860.63;5063443;28;20516;-77
2024/03/16 08:22:56;;;;;;;4.75;4.38;;;;;;;-146.26;100.00;59860.63;5085124;28;20024;-78
2024/03/16 08:25:21;;;;;;;0.40;0.40;;;;;;;-146.26;100.00;59860.63;5058057;28;20387;-81
2024/03/16 08:27:47;;;;;;;8.30;4.97;;;;;;;-146.26;100.00;59860.63;5070796;28;20076;-79
2024/03/16 08:30:13;;;;;;;8.10;5.40;;;;;;;-146.26;100.00;59860.63;5076740;28;20116;-80
2024/03/16 08:32:39;;;;;;;2.05;1.27;;;;;;;-146.26;100.00;59860.63;5079775;28;20047;-76
2024/03/16 08:35:05;;;;;;;5.13;4.68;;;;;;;-146.26;100.00;59860.63;5078312;28;20397;-77
2024/03/16 08:37:31;;;;;;;8.63;6.38;;;;;;;-146.26;100.00;59860.63;5096189;28;20407;-79
2024/03/16 08:39:57;;;;;;;4.95;4.50;;;;;;;-146.26;100.00;59860.63;5073047;28;20044;-83
2024/03/16 08:42:22;;;;;;;6.63;6.00;;;;;;;-146.26;100.00;59860.63;5075043;28;20044;-77
2024/03/16 08:44:48;;;;;;;0.45;0.45;;;;;;;-146.26;100.00;59860.63;5081419;28;20052;-81
2024/03/16 08:47:14;;;;;;;4.97;3.83;;;;;;;-146.26;100.00;59860.63;5076964;28;20576;-78
2024/03/16 08:49:40;;;;;;;6.35;5.63;;;;;;;-146.26;100.00;59860.63;5065104;28;20319;-80
2024/03/16 08:52:07;;;;;;;6.72;4.22;;;;;;;-146.26;100.00;59860.63;5081027;28;20048;-81
2024/03/16 08:54:33;;;;;;;4.55;4.15;;;;;;;-146.26;100.00;59860.63;5062410;28;20056;-79
2024/03/16 08:57:00;;;;;;;4.15;3.78;;;;;;;-146.26;100.00;59860.63;5059987;28;20099;-80
2024/03/16 08:59:25;;;;;;;3.95;3.65;;;;;;;-146.26;100.00;59860.63;5076489;28;20416;-80
2024/03/16 09:01:51;;;;;;;0.30;0.30;;;;;;;-146.26;100.00;59860.63;5081453;28;20060;-82
2024/03/16 09:04:17;;;;;;;1.30;1.27;;;;;;;-146.26;100.00;59860.63;5076271;28;20051;-81
2024/03/16 09:06:42;;;;;;;7.07;5.00;;;;;;;-146.26;100.00;59860.63;5057850;28;20046;-80
2024/03/16 09:09:11;;;;;;;5.57;5.00;;;;;;;-146.26;100.00;59860.63;5064382;28;20125;-80
2024/03/16 09:11:40;;;;;;;10.38;4.50;;;;;;;-146.26;100.00;59860.63;5076946;28;20048;-81
2024/03/16 09:14:06;;;;;;;2.83;2.38;;;;;;;-146.26;100.00;59860.63;5053724;28;20062;-80
2024/03/16 09:16:34;;;;;;;6.15;4.95;;;;;;;-146.26;100.00;59860.63;5051907;28;20534;-81
2024/03/16 09:19:02;;;;;;;5.55;3.45;;;;;;;-146.26;100.00;59860.63;5063519;28;20067;-80
2024/03/16 09:21:28;;;;;;;5.68;4.55;;;;;;;-146.26;100.00;59860.63;5065696;28;20306;-81
2024/03/16 09:23:55;;;;;;;9.43;3.83;;;;;;;-146.26;100.00;59860.63;5070302;28;20040;-79
2024/03/16 09:26:21;;;;;;;6.85;5.93;;;;;;;-146.26;100.00;59860.63;5072864;28;20738;-84
2024/03/16 09:28:46;;;;;;;9.55;3.97;;;;;;;-146.26;100.00;59860.63;5062260;28;20043;-82
2024/03/16 09:31:12;;;;;;;4.78;4.28;;;;;;;-146.26;100.00;59860.63;5060574;28;20037;-83
2024/03/16 09:33:37;;;;;;;6.93;5.30;;;;;;;-146.26;100.00;59860.63;5063410;28;20136;-83
2024/03/16 09:36:06;;;;;;;3.72;3.42;;;;;;;-146.26;100.00;59860.63;5065432;28;20093;-82
2024/03/16 09:38:32;;;;;;;6.55;5.90;;;;;;;-146.26;100.00;59860.63;5046951;28;20487;-83
2024/03/16 09:40:58;;;;;;;4.32;3.85;;;;;;;-146.26;100.00;59860.63;5047819;28;20143;-83
2024/03/16 09:43:24;;;;;;;5.07;4.50;;;;;;;-146.26;100.00;59860.63;5062100;28;20128;-81
2024/03/16 09:45:50;;;;;;;4.57;4.13;;;;;;;-146.26;100.00;59860.63;5062698;28;20050;-83
2024/03/16 09:48:16;;;;;;;7.10;6.50;;;;;;;-146.26;100.00;59860.63;5059159;28;20067;-81
2024/03/16 09:50:49;;;;;;;3.85;3.45;;;;;;;-146.26;100.00;59860.63;5061196;28;20415;-82
2024/03/16 09:53:31;;;;;;;8.45;5.60;;;;;;;-146.26;100.00;59860.63;5058345;28;20076;-83
2024/03/16 09:55:57;;;;;;;4.38;3.97;;;;;;;-146.26;100.00;59860.63;5069019;28;20133;-76
2024/03/16 09:58:29;;;;;;;7.78;3.78;;;;;;;-146.26;100.00;59860.63;5061820;28;20147;-77
2024/03/16 10:00:59;;;;;;;7.33;6.33;;;;;;;-146.26;100.00;59860.63;5061765;28;20048;-76
2024/03/16 10:03:25;;;;;;;6.75;6.07;;;;;;;-146.26;100.00;59860.63;5061744;28;20068;-77
2024/03/16 10:05:50;;;;;;;8.25;6.65;;;;;;;-146.26;100.00;59860.63;5060429;28;20161;-76
2024/03/16 10:08:22;;;;;;;5.40;4.07;;;;;;;-146.26;100.00;59860.63;5050884;28;20103;-74
2024/03/16 10:10:47;;;;;;;5.78;5.22;;;;;;;-146.26;100.00;59860.63;5058361;28;20463;-76
2024/03/16 10:13:14;;;;;;;12.93;3.40;;;;;;;-146.26;100.00;59860.63;5060565;28;20036;-72
2024/03/16 10:15:47;;;;;;;5.82;4.38;;;;;;;-146.26;100.00;59860.63;5058656;28;20059;-76
2024/03/16 10:18:16;;;;;;;5.97;5.28;;;;;;;-146.26;100.00;59860.63;5058427;28;20068;-74
2024/03/16 10:20:45;;;;;;;7.22;6.50;;;;;;;-146.26;100.00;59860.63;5058548;28;20047;-74
2024/03/16 10:23:16;;;;;;;4.50;4.10;;;;;;;-146.26;100.00;59860.63;5057015;28;20566;-76
2024/03/16 10:25:46;;;;;;;5.80;5.30;;;;;;;-146.26;100.00;59860.63;5052297;28;20534;-75
2024/03/16 10:28:17;;;;;;;5.75;4.88;;;;;;;-146.26;100.00;59860.63;5040527;28;20052;-75
2024/03/16 10:30:43;;;;;;;3.25;2.95;;;;;;;-146.26;100.00;59860.63;5057551;28;21050;-77
2024/03/16 10:33:09;;;;;;;5.00;4.53;;;;;;;-146.26;100.00;59860.63;5065440;28;20052;-74
2024/03/16 10:35:34;;;;;;;6.07;3.92;;;;;;;-146.26;100.00;59860.63;5059556;28;20462;-76
2024/03/16 10:38:03;;;;;;;5.72;3.80;;;;;;;-146.26;100.00;59860.63;5047591;28;20036;-75
2024/03/16 10:40:28;;;;;;;7.18;5.22;;;;;;;-146.26;100.00;59860.63;5074821;28;20490;-76
2024/03/16 10:42:55;;;;;;;5.72;4.20;;;;;;;-146.26;100.00;59860.63;5068745;28;20071;-74
2024/03/16 10:45:20;;;;;;;5.75;4.00;;;;;;;-146.26;100.00;59860.63;5046037;28;20120;-76
2024/03/16 10:47:52;;;;;;;4.82;4.43;;;;;;;-146.26;100.00;59860.63;5067058;28;20144;-74
2024/03/16 10:50:20;;;;;;;4.10;3.67;;;;;;;-146.26;100.00;59860.63;5073353;28;20049;-74
2024/03/16 10:52:48;;;;;;;4.57;3.53;;;;;;;-146.26;100.00;59860.63;5063923;28;20139;-76
2024/03/16 10:55:22;;;;;;;3.42;3.20;;;;;;;-146.26;100.00;59860.63;5063301;28;20127;-77
2024/03/16 10:57:53;;;;;;;6.80;5.70;;;;;;;-146.26;100.00;59860.63;5068314;28;20147;-74
2024/03/16 11:00:25;;;;;;;3.92;3.20;;;;;;;-146.26;100.00;59860.63;5061527;28;20048;-76
2024/03/16 11:03:01;;;;;;;6.70;4.47;;;;;;;-146.26;100.00;59860.63;5063365;28;20049;-73
2024/03/16 11:05:37;;;;;;;5.45;3.75;;;;;;;-146.26;100.00;59860.63;5071487;28;20051;-77
2024/03/16 11:08:16;;;;;;;4.45;4.05;;;;;;;-146.26;100.00;59860.63;5065682;28;20038;-76
2024/03/16 11:12:33;;;;;;;5.43;3.97;;;;;;;14.34;100.00;100994.97;5058626;27;26952;-81
2024/03/16 11:15:38;;;;;;;3.45;2.88;;;;;;;14.71;100.00;100976.28;5025688;28;20154;-77
2024/03/16 11:18:40;;;;;;;3.65;3.35;;;;;;;14.65;100.00;100979.81;5012388;28;20148;-75
2024/03/16 11:21:15;;;;;;;4.35;3.90;;;;;;;14.42;100.00;100931.56;5054779;28;20058;-76
2024/03/16 11:23:42;;;;;;;4.22;3.75;;;;;;;14.90;100.00;100969.06;5053444;28;20071;-76
2024/03/16 11:26:26;;;;;;;8.68;4.47;;;;;;;14.63;100.00;100938.47;5048282;28;20045;-76
2024/03/16 11:29:40;;;;;;;4.28;3.97;;;;;;;15.55;100.00;100966.66;5044542;28;20227;-78
2024/03/16 11:32:10;;;;;;;3.20;2.65;;;;;;;15.21;100.00;100972.28;5052973;28;20079;-76
2024/03/16 11:34:35;;;;;;;5.40;3.83;;;;;;;14.97;100.00;100946.97;5025007;28;20032;-73
2024/03/16 11:37:05;;;;;;;7.63;5.32;;;;;;;14.75;100.00;100933.97;5023057;28;20050;-74
2024/03/16 11:39:32;;;;;;;2.53;2.33;;;;;;;15.26;100.00;100959.88;5027091;28;20050;-79
2024/03/16 11:42:00;;;;;;;5.22;4.82;;;;;;;13.65;100.00;100966.28;5035318;28;20086;-77
2024/03/16 11:44:28;;;;;;;4.07;2.67;;;;;;;14.00;100.00;100967.88;5035185;28;20049;-75
2024/03/16 11:46:54;;;;;;;3.60;2.67;;;;;;;14.34;100.00;100953.59;5048388;28;20057;-76
2024/03/16 11:49:21;;;;;;;3.58;3.20;;;;;;;14.44;100.00;100916.59;5033211;28;20047;-75
2024/03/16 11:51:54;;;;;;;8.45;4.25;;;;;;;14.87;100.00;100954.13;5035514;28;20045;-75
2024/03/16 11:54:21;;;;;;;2.70;2.42;;;;;;;14.98;100.00;100954.00;5037842;28;20091;-80
2024/03/16 11:56:47;;;;;;;3.08;2.70;;;;;;;14.60;100.00;100951.72;5030726;28;20053;-77
2024/03/16 11:59:16;;;;;;;12.80;2.92;;;;;;;14.32;100.00;100954.50;5031286;28;20403;-80
2024/03/16 12:01:54;;;;;;;4.90;3.78;;;;;;;14.50;100.00;100957.03;5027505;28;20072;-75
2024/03/16 12:04:22;;;;;;;3.78;3.47;;;;;;;13.68;100.00;100956.59;5046303;28;20052;-77
2024/03/16 12:06:51;;;;;;;4.00;2.90;;;;;;;13.65;100.00;100950.47;5031176;28;20056;-75
2024/03/16 12:09:30;;;;;;;3.67;3.38;;;;;;;13.24;100.00;100944.41;5023929;28;20111;-76
2024/03/16 12:11:58;;;;;;;4.32;3.92;;;;;;;14.08;100.00;100948.50;5044081;28;20722;-75